Geneva, Iowa
Current Conditions -  °F | °C
As of 2:55 AM on Friday 24 Oct 2014 (Local Time) from KIFA Reporting Station
Moderate Fog Moderate Fog  
Wind Chill: 46°   Ceiling: 200
Heat Index: 46°   Visibility: 0.25mi
Dew Point: 46°   Wind: 3mph
Humidity: 97%   Direction: 150°SSE
Pressure: 30.02"   Gusts: NA
Location:  42.68°N, 93.13°W
Report Text: KIFA 240755Z AUTO 15003KT 1/4SM FG OVC002 08/08 A3002 RMK AO2 T00800075
Loading
Personal Weather Stations






























Interactive Weather Map
Tropical Storm Tracking
New forecast layout! Learn more

10-Day Weather Forecast

Advertisements
Track Severe Weather on mobile